sensor_id;sensor_type;location;lat;lon;timestamp;temperature;humidity
43651;DHT22;29247;50.944;5.382;2022-09-09T00:09:31;17.60;85.00
43651;DHT22;29247;50.944;5.382;2022-09-09T00:12:12;17.60;85.00
43651;DHT22;29247;50.944;5.382;2022-09-09T00:14:56;17.60;85.20
43651;DHT22;29247;50.944;5.382;2022-09-09T00:17:47;17.60;85.20
43651;DHT22;29247;50.944;5.382;2022-09-09T00:23:16;17.60;85.20
43651;DHT22;29247;50.944;5.382;2022-09-09T00:31:38;17.60;85.10
43651;DHT22;29247;50.944;5.382;2022-09-09T00:34:17;17.60;85.00
43651;DHT22;29247;50.944;5.382;2022-09-09T00:36:45;17.50;84.90
43651;DHT22;29247;50.944;5.382;2022-09-09T00:39:36;17.50;84.60
43651;DHT22;29247;50.944;5.382;2022-09-09T00:42:45;17.50;84.50
43651;DHT22;29247;50.944;5.382;2022-09-09T00:44:53;17.50;84.50
43651;DHT22;29247;50.944;5.382;2022-09-09T00:47:52;17.40;84.40
43651;DHT22;29247;50.944;5.382;2022-09-09T00:53:16;17.30;84.20
43651;DHT22;29247;50.944;5.382;2022-09-09T00:58:33;17.30;84.20
43651;DHT22;29247;50.944;5.382;2022-09-09T01:01:07;17.30;84.00
43651;DHT22;29247;50.944;5.382;2022-09-09T01:03:37;17.20;83.90
43651;DHT22;29247;50.944;5.382;2022-09-09T01:08:53;17.10;84.20
43651;DHT22;29247;50.944;5.382;2022-09-09T01:11:47;17.10;84.20
43651;DHT22;29247;50.944;5.382;2022-09-09T01:17:24;17.10;84.30
43651;DHT22;29247;50.944;5.382;2022-09-09T01:22:44;17.10;84.80
43651;DHT22;29247;50.944;5.382;2022-09-09T01:27:45;17.10;84.80
43651;DHT22;29247;50.944;5.382;2022-09-09T01:30:18;17.10;84.80
43651;DHT22;29247;50.944;5.382;2022-09-09T01:32:49;17.10;85.00
43651;DHT22;29247;50.944;5.382;2022-09-09T01:38:00;17.10;85.20
43651;DHT22;29247;50.944;5.382;2022-09-09T01:40:28;17.20;85.30
43651;DHT22;29247;50.944;5.382;2022-09-09T01:43:01;17.20;85.30
43651;DHT22;29247;50.944;5.382;2022-09-09T01:45:31;17.20;85.30
43651;DHT22;29247;50.944;5.382;2022-09-09T01:47:57;17.20;85.40
43651;DHT22;29247;50.944;5.382;2022-09-09T01:50:26;17.10;85.40
43651;DHT22;29247;50.944;5.382;2022-09-09T01:52:59;17.10;85.50
43651;DHT22;29247;50.944;5.382;2022-09-09T01:55:36;17.20;85.80
43651;DHT22;29247;50.944;5.382;2022-09-09T02:03:59;17.20;85.80
43651;DHT22;29247;50.944;5.382;2022-09-09T02:06:37;17.20;86.00
43651;DHT22;29247;50.944;5.382;2022-09-09T02:09:10;17.20;86.40
43651;DHT22;29247;50.944;5.382;2022-09-09T02:11:37;17.20;86.50
43651;DHT22;29247;50.944;5.382;2022-09-09T02:14:12;17.20;86.70
43651;DHT22;29247;50.944;5.382;2022-09-09T02:16:52;17.20;86.80
43651;DHT22;29247;50.944;5.382;2022-09-09T02:21:52;17.30;86.80
43651;DHT22;29247;50.944;5.382;2022-09-09T02:24:20;17.30;86.80
43651;DHT22;29247;50.944;5.382;2022-09-09T02:26:50;17.30;86.80
43651;DHT22;29247;50.944;5.382;2022-09-09T02:29:40;17.30;86.80
43651;DHT22;29247;50.944;5.382;2022-09-09T02:32:18;17.30;87.00
43651;DHT22;29247;50.944;5.382;2022-09-09T02:34:49;17.30;86.90
43651;DHT22;29247;50.944;5.382;2022-09-09T02:37:18;17.30;86.80
43651;DHT22;29247;50.944;5.382;2022-09-09T02:39:51;17.30;86.90
43651;DHT22;29247;50.944;5.382;2022-09-09T02:42:20;17.40;86.90
43651;DHT22;29247;50.944;5.382;2022-09-09T02:44:46;17.30;86.80
43651;DHT22;29247;50.944;5.382;2022-09-09T02:49:55;17.30;86.90
43651;DHT22;29247;50.944;5.382;2022-09-09T02:58:03;17.30;87.00
43651;DHT22;29247;50.944;5.382;2022-09-09T03:00:31;17.30;87.10
43651;DHT22;29247;50.944;5.382;2022-09-09T03:03:02;17.40;87.20
43651;DHT22;29247;50.944;5.382;2022-09-09T03:05:31;17.30;87.10
43651;DHT22;29247;50.944;5.382;2022-09-09T03:07:59;17.30;87.20
43651;DHT22;29247;50.944;5.382;2022-09-09T03:10:25;17.30;87.20
43651;DHT22;29247;50.944;5.382;2022-09-09T03:12:51;17.40;87.30
43651;DHT22;29247;50.944;5.382;2022-09-09T03:15:18;17.40;87.40
43651;DHT22;29247;50.944;5.382;2022-09-09T03:17:46;17.40;87.40
43651;DHT22;29247;50.944;5.382;2022-09-09T03:20:12;17.40;87.40
43651;DHT22;29247;50.944;5.382;2022-09-09T03:22:41;17.40;87.50
43651;DHT22;29247;50.944;5.382;2022-09-09T03:25:09;17.30;87.50
43651;DHT22;29247;50.944;5.382;2022-09-09T03:27:34;17.40;87.50
43651;DHT22;29247;50.944;5.382;2022-09-09T03:30:02;17.40;87.60
43651;DHT22;29247;50.944;5.382;2022-09-09T03:32:28;17.40;88.00
43651;DHT22;29247;50.944;5.382;2022-09-09T03:34:57;17.40;87.70
43651;DHT22;29247;50.944;5.382;2022-09-09T03:37:23;17.40;87.70
43651;DHT22;29247;50.944;5.382;2022-09-09T03:39:50;17.40;87.80
43651;DHT22;29247;50.944;5.382;2022-09-09T03:42:20;17.40;87.90
43651;DHT22;29247;50.944;5.382;2022-09-09T03:44:48;17.40;87.90
43651;DHT22;29247;50.944;5.382;2022-09-09T03:47:21;17.40;87.90
43651;DHT22;29247;50.944;5.382;2022-09-09T03:49:49;17.40;87.90
43651;DHT22;29247;50.944;5.382;2022-09-09T03:52:15;17.40;87.90
43651;DHT22;29247;50.944;5.382;2022-09-09T03:54:46;17.40;87.90
43651;DHT22;29247;50.944;5.382;2022-09-09T03:57:12;17.40;88.00
43651;DHT22;29247;50.944;5.382;2022-09-09T03:59:40;17.40;88.00
43651;DHT22;29247;50.944;5.382;2022-09-09T04:02:08;17.50;88.00
43651;DHT22;29247;50.944;5.382;2022-09-09T04:04:34;17.50;88.00
43651;DHT22;29247;50.944;5.382;2022-09-09T04:07:05;17.50;88.00
43651;DHT22;29247;50.944;5.382;2022-09-09T04:09:32;17.50;88.00
43651;DHT22;29247;50.944;5.382;2022-09-09T04:12:00;17.40;87.80
43651;DHT22;29247;50.944;5.382;2022-09-09T04:14:28;17.50;87.90
43651;DHT22;29247;50.944;5.382;2022-09-09T04:16:58;17.50;87.80
43651;DHT22;29247;50.944;5.382;2022-09-09T04:19:27;17.40;87.60
43651;DHT22;29247;50.944;5.382;2022-09-09T04:21:56;17.50;87.60
43651;DHT22;29247;50.944;5.382;2022-09-09T04:24:22;17.40;87.60
43651;DHT22;29247;50.944;5.382;2022-09-09T04:26:48;17.40;87.60
43651;DHT22;29247;50.944;5.382;2022-09-09T04:29:14;17.40;87.60
43651;DHT22;29247;50.944;5.382;2022-09-09T04:31:40;17.40;87.60
43651;DHT22;29247;50.944;5.382;2022-09-09T04:34:09;17.40;87.60
43651;DHT22;29247;50.944;5.382;2022-09-09T04:36:35;17.40;87.70
43651;DHT22;29247;50.944;5.382;2022-09-09T04:39:03;17.40;87.70
43651;DHT22;29247;50.944;5.382;2022-09-09T04:41:29;17.40;87.70
43651;DHT22;29247;50.944;5.382;2022-09-09T04:43:56;17.40;87.70
43651;DHT22;29247;50.944;5.382;2022-09-09T04:46:28;17.40;87.70
43651;DHT22;29247;50.944;5.382;2022-09-09T04:48:54;17.40;87.70
43651;DHT22;29247;50.944;5.382;2022-09-09T04:51:20;17.40;87.70
43651;DHT22;29247;50.944;5.382;2022-09-09T04:53:48;17.30;87.60
43651;DHT22;29247;50.944;5.382;2022-09-09T04:56:31;17.40;87.80
43651;DHT22;29247;50.944;5.382;2022-09-09T04:58:56;17.40;87.80
43651;DHT22;29247;50.944;5.382;2022-09-09T05:01:22;17.40;87.70
43651;DHT22;29247;50.944;5.382;2022-09-09T05:03:52;17.40;87.70
43651;DHT22;29247;50.944;5.382;2022-09-09T05:06:25;17.40;87.70
43651;DHT22;29247;50.944;5.382;2022-09-09T05:08:54;17.30;87.60
43651;DHT22;29247;50.944;5.382;2022-09-09T05:11:24;17.40;87.70
43651;DHT22;29247;50.944;5.382;2022-09-09T05:13:54;17.30;87.60
43651;DHT22;29247;50.944;5.382;2022-09-09T05:16:21;17.30;87.70
43651;DHT22;29247;50.944;5.382;2022-09-09T05:18:48;17.40;87.60
43651;DHT22;29247;50.944;5.382;2022-09-09T05:21:15;17.30;88.30
43651;DHT22;29247;50.944;5.382;2022-09-09T05:23:41;17.30;87.70
43651;DHT22;29247;50.944;5.382;2022-09-09T05:26:11;17.30;87.80
43651;DHT22;29247;50.944;5.382;2022-09-09T05:28:37;17.30;87.80
43651;DHT22;29247;50.944;5.382;2022-09-09T05:31:05;17.30;87.70
43651;DHT22;29247;50.944;5.382;2022-09-09T05:33:35;17.30;87.80
43651;DHT22;29247;50.944;5.382;2022-09-09T05:36:04;17.30;87.60
43651;DHT22;29247;50.944;5.382;2022-09-09T05:38:32;17.30;87.60
43651;DHT22;29247;50.944;5.382;2022-09-09T05:41:02;17.30;87.80
43651;DHT22;29247;50.944;5.382;2022-09-09T05:43:28;17.30;87.90
43651;DHT22;29247;50.944;5.382;2022-09-09T05:46:15;17.30;87.90
43651;DHT22;29247;50.944;5.382;2022-09-09T05:48:45;17.30;88.00
43651;DHT22;29247;50.944;5.382;2022-09-09T05:51:14;17.30;87.90
43651;DHT22;29247;50.944;5.382;2022-09-09T05:53:48;17.30;87.90
43651;DHT22;29247;50.944;5.382;2022-09-09T05:56:22;17.30;87.80
43651;DHT22;29247;50.944;5.382;2022-09-09T05:58:53;17.30;87.70
43651;DHT22;29247;50.944;5.382;2022-09-09T06:01:27;17.30;87.70
43651;DHT22;29247;50.944;5.382;2022-09-09T06:03:54;17.30;87.60
43651;DHT22;29247;50.944;5.382;2022-09-09T06:06:25;17.40;87.60
43651;DHT22;29247;50.944;5.382;2022-09-09T06:08:55;17.40;87.60
43651;DHT22;29247;50.944;5.382;2022-09-09T06:11:29;17.30;87.50
43651;DHT22;29247;50.944;5.382;2022-09-09T06:13:58;17.40;87.40
43651;DHT22;29247;50.944;5.382;2022-09-09T06:16:27;17.40;87.30
43651;DHT22;29247;50.944;5.382;2022-09-09T06:19:00;17.40;87.50
43651;DHT22;29247;50.944;5.382;2022-09-09T06:21:32;17.40;87.40
43651;DHT22;29247;50.944;5.382;2022-09-09T06:23:59;17.40;87.40
43651;DHT22;29247;50.944;5.382;2022-09-09T06:26:34;17.40;87.30
43651;DHT22;29247;50.944;5.382;2022-09-09T06:29:03;17.40;87.30
43651;DHT22;29247;50.944;5.382;2022-09-09T06:31:33;17.50;87.30
43651;DHT22;29247;50.944;5.382;2022-09-09T06:34:03;17.50;87.20
43651;DHT22;29247;50.944;5.382;2022-09-09T06:36:32;17.50;87.10
43651;DHT22;29247;50.944;5.382;2022-09-09T06:38:58;17.50;86.90
43651;DHT22;29247;50.944;5.382;2022-09-09T06:41:32;17.50;86.80
43651;DHT22;29247;50.944;5.382;2022-09-09T06:43:58;17.50;86.70
43651;DHT22;29247;50.944;5.382;2022-09-09T06:46:27;17.50;86.70
43651;DHT22;29247;50.944;5.382;2022-09-09T06:48:54;17.60;86.70
43651;DHT22;29247;50.944;5.382;2022-09-09T06:51:25;17.50;86.50
43651;DHT22;29247;50.944;5.382;2022-09-09T06:53:53;17.50;86.50
43651;DHT22;29247;50.944;5.382;2022-09-09T06:56:31;17.60;86.50
43651;DHT22;29247;50.944;5.382;2022-09-09T06:59:01;17.50;86.40
43651;DHT22;29247;50.944;5.382;2022-09-09T07:01:35;17.60;86.60
43651;DHT22;29247;50.944;5.382;2022-09-09T07:04:07;17.60;86.70
43651;DHT22;29247;50.944;5.382;2022-09-09T07:06:38;17.70;86.70
43651;DHT22;29247;50.944;5.382;2022-09-09T07:09:09;17.70;86.50
43651;DHT22;29247;50.944;5.382;2022-09-09T07:11:49;17.70;86.30
43651;DHT22;29247;50.944;5.382;2022-09-09T07:14:19;17.80;86.10
43651;DHT22;29247;50.944;5.382;2022-09-09T07:16:48;17.80;85.90
43651;DHT22;29247;50.944;5.382;2022-09-09T07:19:16;17.80;85.90
43651;DHT22;29247;50.944;5.382;2022-09-09T07:21:43;17.80;85.70
43651;DHT22;29247;50.944;5.382;2022-09-09T07:24:12;17.80;85.50
43651;DHT22;29247;50.944;5.382;2022-09-09T07:26:38;17.80;85.40
43651;DHT22;29247;50.944;5.382;2022-09-09T07:29:07;17.80;85.40
43651;DHT22;29247;50.944;5.382;2022-09-09T07:31:36;17.90;85.50
43651;DHT22;29247;50.944;5.382;2022-09-09T07:34:04;17.90;85.40
43651;DHT22;29247;50.944;5.382;2022-09-09T07:36:37;17.90;85.20
43651;DHT22;29247;50.944;5.382;2022-09-09T07:39:07;18.00;85.20
43651;DHT22;29247;50.944;5.382;2022-09-09T07:41:40;18.00;85.00
43651;DHT22;29247;50.944;5.382;2022-09-09T07:44:17;18.10;84.80
43651;DHT22;29247;50.944;5.382;2022-09-09T07:46:49;18.10;84.70
43651;DHT22;29247;50.944;5.382;2022-09-09T07:49:17;18.10;84.70
43651;DHT22;29247;50.944;5.382;2022-09-09T07:51:45;18.20;84.60
43651;DHT22;29247;50.944;5.382;2022-09-09T07:54:14;18.20;84.40
43651;DHT22;29247;50.944;5.382;2022-09-09T07:56:40;18.30;84.30
43651;DHT22;29247;50.944;5.382;2022-09-09T07:59:07;18.30;84.10
43651;DHT22;29247;50.944;5.382;2022-09-09T08:01:42;18.30;83.80
43651;DHT22;29247;50.944;5.382;2022-09-09T08:04:13;18.40;83.50
43651;DHT22;29247;50.944;5.382;2022-09-09T08:06:54;18.40;82.90
43651;DHT22;29247;50.944;5.382;2022-09-09T08:09:23;18.40;82.60
43651;DHT22;29247;50.944;5.382;2022-09-09T08:11:57;18.40;82.30
43651;DHT22;29247;50.944;5.382;2022-09-09T08:14:25;18.40;82.10
43651;DHT22;29247;50.944;5.382;2022-09-09T08:16:51;18.40;81.90
43651;DHT22;29247;50.944;5.382;2022-09-09T08:19:21;18.40;81.80
43651;DHT22;29247;50.944;5.382;2022-09-09T08:21:48;18.40;81.70
43651;DHT22;29247;50.944;5.382;2022-09-09T08:24:16;18.40;81.70
43651;DHT22;29247;50.944;5.382;2022-09-09T08:26:48;18.40;81.50
43651;DHT22;29247;50.944;5.382;2022-09-09T08:29:17;18.40;81.30
43651;DHT22;29247;50.944;5.382;2022-09-09T08:31:48;18.40;81.20
43651;DHT22;29247;50.944;5.382;2022-09-09T08:34:16;18.40;81.10
43651;DHT22;29247;50.944;5.382;2022-09-09T08:36:47;18.40;81.10
43651;DHT22;29247;50.944;5.382;2022-09-09T08:39:15;18.40;81.10
43651;DHT22;29247;50.944;5.382;2022-09-09T08:43:02;18.30;81.20
43651;DHT22;29247;50.944;5.382;2022-09-09T08:48:13;18.40;81.10
43651;DHT22;29247;50.944;5.382;2022-09-09T08:50:45;18.30;81.10
43651;DHT22;29247;50.944;5.382;2022-09-09T08:53:40;18.30;80.80
43651;DHT22;29247;50.944;5.382;2022-09-09T08:56:15;18.30;80.90
43651;DHT22;29247;50.944;5.382;2022-09-09T08:58:49;18.30;80.80
43651;DHT22;29247;50.944;5.382;2022-09-09T09:12:50;18.30;80.70
43651;DHT22;29247;50.944;5.382;2022-09-09T09:15:22;18.30;80.80
43651;DHT22;29247;50.944;5.382;2022-09-09T09:17:52;18.30;80.80
43651;DHT22;29247;50.944;5.382;2022-09-09T09:20:34;18.30;80.80
43651;DHT22;29247;50.944;5.382;2022-09-09T09:23:05;18.30;80.70
43651;DHT22;29247;50.944;5.382;2022-09-09T09:25:38;18.30;80.70
43651;DHT22;29247;50.944;5.382;2022-09-09T09:28:17;18.40;80.80
43651;DHT22;29247;50.944;5.382;2022-09-09T09:36:08;18.40;80.40
43651;DHT22;29247;50.944;5.382;2022-09-09T09:38:55;18.40;80.30
43651;DHT22;29247;50.944;5.382;2022-09-09T09:41:34;18.40;80.20
43651;DHT22;29247;50.944;5.382;2022-09-09T09:44:02;18.50;80.10
43651;DHT22;29247;50.944;5.382;2022-09-09T09:46:28;18.50;80.30
43651;DHT22;29247;50.944;5.382;2022-09-09T09:49:03;18.60;80.50
43651;DHT22;29247;50.944;5.382;2022-09-09T09:51:34;18.60;80.50
43651;DHT22;29247;50.944;5.382;2022-09-09T09:54:23;18.70;80.30
43651;DHT22;29247;50.944;5.382;2022-09-09T09:56:50;18.70;80.20
43651;DHT22;29247;50.944;5.382;2022-09-09T10:01:53;18.80;79.90
43651;DHT22;29247;50.944;5.382;2022-09-09T10:04:22;18.80;79.40
43651;DHT22;29247;50.944;5.382;2022-09-09T10:06:51;18.80;79.30
43651;DHT22;29247;50.944;5.382;2022-09-09T10:09:29;18.80;79.20
43651;DHT22;29247;50.944;5.382;2022-09-09T10:34:12;18.80;80.00
43651;DHT22;29247;50.944;5.382;2022-09-09T10:36:47;18.80;80.20
43651;DHT22;29247;50.944;5.382;2022-09-09T10:39:36;18.80;80.40
43651;DHT22;29247;50.944;5.382;2022-09-09T10:42:12;18.70;80.90
43651;DHT22;29247;50.944;5.382;2022-09-09T10:50:40;18.60;81.70
43651;DHT22;29247;50.944;5.382;2022-09-09T10:55:44;18.60;83.20
43651;DHT22;29247;50.944;5.382;2022-09-09T10:58:25;18.60;82.80
43651;DHT22;29247;50.944;5.382;2022-09-09T11:00:59;18.60;83.30
43651;DHT22;29247;50.944;5.382;2022-09-09T11:03:28;18.60;83.50
43651;DHT22;29247;50.944;5.382;2022-09-09T11:06:05;18.70;83.80
43651;DHT22;29247;50.944;5.382;2022-09-09T11:08:36;18.70;84.20
43651;DHT22;29247;50.944;5.382;2022-09-09T11:13:44;18.80;84.60
43651;DHT22;29247;50.944;5.382;2022-09-09T11:18:48;18.80;84.60
43651;DHT22;29247;50.944;5.382;2022-09-09T11:21:36;18.90;84.80
43651;DHT22;29247;50.944;5.382;2022-09-09T11:24:08;18.90;85.00
43651;DHT22;29247;50.944;5.382;2022-09-09T11:26:52;18.90;85.10
43651;DHT22;29247;50.944;5.382;2022-09-09T11:40:29;19.10;85.80
43651;DHT22;29247;50.944;5.382;2022-09-09T11:43:05;19.10;86.00
43651;DHT22;29247;50.944;5.382;2022-09-09T11:45:37;19.20;85.70
43651;DHT22;29247;50.944;5.382;2022-09-09T11:48:05;19.20;85.40
43651;DHT22;29247;50.944;5.382;2022-09-09T11:53:51;19.20;85.50
43651;DHT22;29247;50.944;5.382;2022-09-09T11:56:46;19.30;85.20
43651;DHT22;29247;50.944;5.382;2022-09-09T11:59:29;19.20;85.10
43651;DHT22;29247;50.944;5.382;2022-09-09T12:01:59;19.30;84.80
43651;DHT22;29247;50.944;5.382;2022-09-09T12:04:30;19.30;84.40
43651;DHT22;29247;50.944;5.382;2022-09-09T12:06:58;19.20;84.30
43651;DHT22;29247;50.944;5.382;2022-09-09T12:09:44;19.20;84.10
43651;DHT22;29247;50.944;5.382;2022-09-09T12:14:43;19.20;83.70
43651;DHT22;29247;50.944;5.382;2022-09-09T12:17:19;19.10;83.60
43651;DHT22;29247;50.944;5.382;2022-09-09T12:19:45;19.10;83.70
43651;DHT22;29247;50.944;5.382;2022-09-09T12:24:56;19.10;83.70
43651;DHT22;29247;50.944;5.382;2022-09-09T12:27:28;19.00;83.60
43651;DHT22;29247;50.944;5.382;2022-09-09T12:30:18;19.10;83.70
43651;DHT22;29247;50.944;5.382;2022-09-09T12:32:58;19.00;83.70
43651;DHT22;29247;50.944;5.382;2022-09-09T12:35:26;19.00;83.80
43651;DHT22;29247;50.944;5.382;2022-09-09T12:37:58;18.90;83.90
43651;DHT22;29247;50.944;5.382;2022-09-09T12:40:31;18.90;84.00
43651;DHT22;29247;50.944;5.382;2022-09-09T12:43:01;18.90;84.10
43651;DHT22;29247;50.944;5.382;2022-09-09T12:45:29;18.90;84.40
43651;DHT22;29247;50.944;5.382;2022-09-09T12:48:05;18.90;84.70
43651;DHT22;29247;50.944;5.382;2022-09-09T12:50:37;19.00;85.00
43651;DHT22;29247;50.944;5.382;2022-09-09T12:53:06;19.00;85.10
43651;DHT22;29247;50.944;5.382;2022-09-09T12:55:35;19.10;85.30
43651;DHT22;29247;50.944;5.382;2022-09-09T12:58:05;19.10;85.50
43651;DHT22;29247;50.944;5.382;2022-09-09T13:00:34;19.20;85.50
43651;DHT22;29247;50.944;5.382;2022-09-09T13:03:16;19.20;85.60
43651;DHT22;29247;50.944;5.382;2022-09-09T13:05:48;19.30;85.60
43651;DHT22;29247;50.944;5.382;2022-09-09T13:08:14;19.30;85.50
43651;DHT22;29247;50.944;5.382;2022-09-09T13:10:53;19.30;86.30
43651;DHT22;29247;50.944;5.382;2022-09-09T13:13:25;19.40;86.00
43651;DHT22;29247;50.944;5.382;2022-09-09T13:15:52;19.50;86.40
43651;DHT22;29247;50.944;5.382;2022-09-09T13:18:39;19.60;86.60
43651;DHT22;29247;50.944;5.382;2022-09-09T13:21:05;19.60;86.40
43651;DHT22;29247;50.944;5.382;2022-09-09T13:23:34;19.70;85.90
43651;DHT22;29247;50.944;5.382;2022-09-09T13:26:02;19.70;85.50
43651;DHT22;29247;50.944;5.382;2022-09-09T13:28:31;19.80;85.40
43651;DHT22;29247;50.944;5.382;2022-09-09T13:33:28;19.80;84.50
43651;DHT22;29247;50.944;5.382;2022-09-09T13:36:07;19.90;84.30
43651;DHT22;29247;50.944;5.382;2022-09-09T13:38:36;19.90;83.90
43651;DHT22;29247;50.944;5.382;2022-09-09T13:43:42;19.90;83.20
43651;DHT22;29247;50.944;5.382;2022-09-09T13:46:31;20.00;83.00
43651;DHT22;29247;50.944;5.382;2022-09-09T13:49:18;20.00;82.80
43651;DHT22;29247;50.944;5.382;2022-09-09T13:51:48;20.00;82.50
43651;DHT22;29247;50.944;5.382;2022-09-09T13:54:16;20.10;82.60
43651;DHT22;29247;50.944;5.382;2022-09-09T13:56:42;20.10;82.60
43651;DHT22;29247;50.944;5.382;2022-09-09T13:59:12;20.10;82.60
43651;DHT22;29247;50.944;5.382;2022-09-09T14:01:39;20.10;82.70
43651;DHT22;29247;50.944;5.382;2022-09-09T14:04:04;20.20;82.50
43651;DHT22;29247;50.944;5.382;2022-09-09T14:06:36;20.20;82.40
43651;DHT22;29247;50.944;5.382;2022-09-09T14:09:09;20.30;81.80
43651;DHT22;29247;50.944;5.382;2022-09-09T14:11:37;20.30;81.20
43651;DHT22;29247;50.944;5.382;2022-09-09T14:14:06;20.30;80.60
43651;DHT22;29247;50.944;5.382;2022-09-09T14:16:31;20.20;80.00
43651;DHT22;29247;50.944;5.382;2022-09-09T14:18:58;20.20;79.60
43651;DHT22;29247;50.944;5.382;2022-09-09T14:21:24;20.20;79.50
43651;DHT22;29247;50.944;5.382;2022-09-09T14:23:50;20.20;79.50
43651;DHT22;29247;50.944;5.382;2022-09-09T14:26:18;20.30;79.30
43651;DHT22;29247;50.944;5.382;2022-09-09T14:28:48;20.30;79.30
43651;DHT22;29247;50.944;5.382;2022-09-09T14:31:14;20.30;79.30
43651;DHT22;29247;50.944;5.382;2022-09-09T14:33:43;20.30;79.40
43651;DHT22;29247;50.944;5.382;2022-09-09T14:36:08;20.40;79.30
43651;DHT22;29247;50.944;5.382;2022-09-09T14:38:34;20.40;78.80
43651;DHT22;29247;50.944;5.382;2022-09-09T14:41:11;20.40;78.40
43651;DHT22;29247;50.944;5.382;2022-09-09T14:43:38;20.40;78.00
43651;DHT22;29247;50.944;5.382;2022-09-09T14:46:04;20.40;77.80
43651;DHT22;29247;50.944;5.382;2022-09-09T14:48:31;20.40;77.70
43651;DHT22;29247;50.944;5.382;2022-09-09T14:50:56;20.40;77.40
43651;DHT22;29247;50.944;5.382;2022-09-09T14:53:24;20.50;77.50
43651;DHT22;29247;50.944;5.382;2022-09-09T14:55:50;20.50;77.20
43651;DHT22;29247;50.944;5.382;2022-09-09T14:58:15;20.50;77.00
43651;DHT22;29247;50.944;5.382;2022-09-09T15:00:41;20.60;76.20
43651;DHT22;29247;50.944;5.382;2022-09-09T15:03:06;20.60;75.60
43651;DHT22;29247;50.944;5.382;2022-09-09T15:05:32;20.60;75.90
43651;DHT22;29247;50.944;5.382;2022-09-09T15:07:59;20.60;75.60
43651;DHT22;29247;50.944;5.382;2022-09-09T15:10:25;20.70;75.30
43651;DHT22;29247;50.944;5.382;2022-09-09T15:12:51;20.70;75.00
43651;DHT22;29247;50.944;5.382;2022-09-09T15:15:17;20.60;74.30
43651;DHT22;29247;50.944;5.382;2022-09-09T15:17:43;20.60;74.10
43651;DHT22;29247;50.944;5.382;2022-09-09T15:20:08;20.60;74.20
43651;DHT22;29247;50.944;5.382;2022-09-09T15:22:34;20.60;74.40
43651;DHT22;29247;50.944;5.382;2022-09-09T15:25:02;20.60;74.50
43651;DHT22;29247;50.944;5.382;2022-09-09T15:27:30;20.60;74.60
43651;DHT22;29247;50.944;5.382;2022-09-09T15:29:59;20.60;74.80
43651;DHT22;29247;50.944;5.382;2022-09-09T15:32:26;20.60;75.00
43651;DHT22;29247;50.944;5.382;2022-09-09T15:34:54;20.60;74.90
43651;DHT22;29247;50.944;5.382;2022-09-09T15:37:20;20.60;74.90
43651;DHT22;29247;50.944;5.382;2022-09-09T15:39:45;20.60;74.90
43651;DHT22;29247;50.944;5.382;2022-09-09T15:42:13;20.60;75.00
43651;DHT22;29247;50.944;5.382;2022-09-09T15:44:41;20.50;75.00
43651;DHT22;29247;50.944;5.382;2022-09-09T15:47:13;20.60;75.00
43651;DHT22;29247;50.944;5.382;2022-09-09T15:49:41;20.60;75.10
43651;DHT22;29247;50.944;5.382;2022-09-09T15:52:10;20.60;75.20
43651;DHT22;29247;50.944;5.382;2022-09-09T15:54:36;20.60;75.30
43651;DHT22;29247;50.944;5.382;2022-09-09T15:57:07;20.60;75.30
43651;DHT22;29247;50.944;5.382;2022-09-09T15:59:38;20.60;75.40
43651;DHT22;29247;50.944;5.382;2022-09-09T16:02:03;20.60;75.40
43651;DHT22;29247;50.944;5.382;2022-09-09T16:04:31;20.60;75.60
43651;DHT22;29247;50.944;5.382;2022-09-09T16:07:00;20.70;75.50
43651;DHT22;29247;50.944;5.382;2022-09-09T16:09:26;20.70;75.30
43651;DHT22;29247;50.944;5.382;2022-09-09T16:11:52;20.70;75.10
43651;DHT22;29247;50.944;5.382;2022-09-09T16:14:24;20.70;75.00
43651;DHT22;29247;50.944;5.382;2022-09-09T16:16:50;20.70;74.90
43651;DHT22;29247;50.944;5.382;2022-09-09T16:19:16;20.60;74.50
43651;DHT22;29247;50.944;5.382;2022-09-09T16:21:43;20.60;74.30
43651;DHT22;29247;50.944;5.382;2022-09-09T16:24:12;20.60;74.20
43651;DHT22;29247;50.944;5.382;2022-09-09T16:26:42;20.60;74.10
43651;DHT22;29247;50.944;5.382;2022-09-09T16:29:13;20.60;74.10
43651;DHT22;29247;50.944;5.382;2022-09-09T16:31:42;20.50;74.10
43651;DHT22;29247;50.944;5.382;2022-09-09T16:34:08;20.50;74.00
43651;DHT22;29247;50.944;5.382;2022-09-09T16:36:37;20.50;74.00
43651;DHT22;29247;50.944;5.382;2022-09-09T16:39:07;20.50;74.10
43651;DHT22;29247;50.944;5.382;2022-09-09T16:41:38;20.50;74.20
43651;DHT22;29247;50.944;5.382;2022-09-09T16:44:07;20.40;74.20
43651;DHT22;29247;50.944;5.382;2022-09-09T16:46:34;20.40;74.40
43651;DHT22;29247;50.944;5.382;2022-09-09T16:49:00;20.40;74.50
43651;DHT22;29247;50.944;5.382;2022-09-09T16:51:27;20.30;74.60
43651;DHT22;29247;50.944;5.382;2022-09-09T16:53:57;20.30;74.70
43651;DHT22;29247;50.944;5.382;2022-09-09T16:56:26;20.30;74.80
43651;DHT22;29247;50.944;5.382;2022-09-09T16:58:56;20.30;74.90
43651;DHT22;29247;50.944;5.382;2022-09-09T17:01:28;20.30;75.00
43651;DHT22;29247;50.944;5.382;2022-09-09T17:03:54;20.20;75.10
43651;DHT22;29247;50.944;5.382;2022-09-09T17:06:20;20.20;75.20
43651;DHT22;29247;50.944;5.382;2022-09-09T17:08:46;20.20;75.40
43651;DHT22;29247;50.944;5.382;2022-09-09T17:11:15;20.10;75.30
43651;DHT22;29247;50.944;5.382;2022-09-09T17:13:45;20.10;75.40
43651;DHT22;29247;50.944;5.382;2022-09-09T17:16:13;20.10;75.30
43651;DHT22;29247;50.944;5.382;2022-09-09T17:18:40;20.10;75.30
43651;DHT22;29247;50.944;5.382;2022-09-09T17:21:09;20.10;75.30
43651;DHT22;29247;50.944;5.382;2022-09-09T17:23:36;20.00;75.30
43651;DHT22;29247;50.944;5.382;2022-09-09T17:26:07;20.00;75.30
43651;DHT22;29247;50.944;5.382;2022-09-09T17:28:35;20.00;75.30
43651;DHT22;29247;50.944;5.382;2022-09-09T17:31:01;20.00;75.30
43651;DHT22;29247;50.944;5.382;2022-09-09T17:33:31;20.00;75.30
43651;DHT22;29247;50.944;5.382;2022-09-09T17:35:58;20.00;75.20
43651;DHT22;29247;50.944;5.382;2022-09-09T17:38:29;20.00;75.10
43651;DHT22;29247;50.944;5.382;2022-09-09T17:41:06;20.00;75.00
43651;DHT22;29247;50.944;5.382;2022-09-09T17:43:34;20.00;75.00
43651;DHT22;29247;50.944;5.382;2022-09-09T17:48:35;20.00;74.80
43651;DHT22;29247;50.944;5.382;2022-09-09T17:51:02;19.90;74.80
43651;DHT22;29247;50.944;5.382;2022-09-09T17:53:30;19.90;74.80
43651;DHT22;29247;50.944;5.382;2022-09-09T17:56:03;19.90;74.80
43651;DHT22;29247;50.944;5.382;2022-09-09T17:58:28;19.90;74.90
43651;DHT22;29247;50.944;5.382;2022-09-09T18:00:54;19.90;75.10
43651;DHT22;29247;50.944;5.382;2022-09-09T18:03:22;19.90;75.30
43651;DHT22;29247;50.944;5.382;2022-09-09T18:05:48;19.80;75.60
43651;DHT22;29247;50.944;5.382;2022-09-09T18:08:16;19.80;75.90
43651;DHT22;29247;50.944;5.382;2022-09-09T18:10:42;19.80;76.10